PNH weather

Phnom Penh International Airport
Phnom Penh, Kandaal, Cambodia

Public forecast

Using degrees Celsius for public forecast. Weather courtesy of forecast.io.

METAR (pilot weather report)

Retrieved 2019/02/19 23:30 UTC (7 minutes ago):

VDPP 192330Z 16006KT 9999 FEW017 25/23 Q1014

TAF (pilot weather forecast)

Forecast is more than 6 hours old.

Retrieved 2019/02/19 12:00 UTC (12 hours ago):

TAF VDPP 191100Z 1912/2006 17007KT 9999 SCT017